Time;durP1;ratioP1;P1;durP2;ratioP2;P2;SDS_P1;SDS_P2;PMS_P1;PMS_P2;Temp;Humidity;BMP_temperature;BMP_pressure;BME280_temperature;BME280_humidity;BME280_pressure;Samples;Min_cycle;Max_cycle;Signal;HPM_P1;HPM_P2
2022/12/28 00:01:32;;;;;;;12.32;4.25;;;5.60;99.90;;;;;;5073995;28;20126;-71
2022/12/28 00:03:59;;;;;;;12.80;4.45;;;5.60;99.90;;;;;;5073664;28;20481;-70
2022/12/28 00:06:26;;;;;;;11.10;4.30;;;5.60;99.90;;;;;;5073655;28;20114;-70
2022/12/28 00:08:55;;;;;;;17.98;4.85;;;5.60;99.90;;;;;;5073667;28;20044;-70
2022/12/28 00:11:23;;;;;;;10.40;3.90;;;5.60;99.90;;;;;;5073574;28;20047;-71
2022/12/28 00:13:48;;;;;;;13.57;4.28;;;5.60;99.90;;;;;;5073421;28;20044;-71
2022/12/28 00:16:20;;;;;;;12.25;4.45;;;5.60;99.90;;;;;;5073694;28;20112;-70
2022/12/28 00:18:45;;;;;;;16.98;4.50;;;5.60;99.90;;;;;;5073332;28;20044;-70
2022/12/28 00:21:11;;;;;;;11.50;4.78;;;5.60;99.90;;;;;;5073324;28;20055;-70
2022/12/28 00:23:36;;;;;;;9.77;4.03;;;5.60;99.90;;;;;;5073315;28;20040;-70
2022/12/28 00:26:10;;;;;;;9.60;4.53;;;5.60;99.90;;;;;;5073149;28;20066;-70
2022/12/28 00:28:36;;;;;;;10.02;4.53;;;5.60;99.90;;;;;;5073248;28;20051;-70
2022/12/28 00:31:02;;;;;;;11.65;4.63;;;5.60;99.90;;;;;;5073463;28;20036;-70
2022/12/28 00:33:27;;;;;;;12.50;4.95;;;5.60;99.90;;;;;;5073098;28;20519;-70
2022/12/28 00:35:54;;;;;;;12.38;4.43;;;5.60;99.90;;;;;;5072855;28;20097;-70
2022/12/28 00:38:20;;;;;;;15.77;5.35;;;5.50;99.90;;;;;;5073269;28;20494;-70
2022/12/28 00:40:45;;;;;;;11.40;4.72;;;5.60;99.90;;;;;;5072201;28;20047;-70
2022/12/28 00:43:11;;;;;;;11.73;5.03;;;5.60;99.90;;;;;;5072899;28;20447;-70
2022/12/28 00:45:36;;;;;;;12.27;5.00;;;5.60;99.90;;;;;;5072832;28;20047;-70
2022/12/28 00:48:02;;;;;;;12.30;4.88;;;5.50;99.90;;;;;;5072718;28;20048;-70
2022/12/28 00:50:28;;;;;;;13.65;5.15;;;5.60;99.90;;;;;;5072796;28;20040;-70
2022/12/28 00:52:54;;;;;;;13.75;4.97;;;5.60;99.90;;;;;;5072990;28;20067;-70
2022/12/28 00:55:19;;;;;;;12.77;4.95;;;5.60;99.90;;;;;;5072618;28;20405;-70
2022/12/28 00:57:45;;;;;;;13.73;4.43;;;5.60;99.90;;;;;;5072532;28;20048;-70
2022/12/28 01:00:11;;;;;;;12.55;4.70;;;5.60;99.90;;;;;;5073222;28;20056;-71
2022/12/28 01:02:37;;;;;;;11.13;4.20;;;5.60;99.90;;;;;;5072556;28;20043;-70
2022/12/28 01:05:03;;;;;;;15.50;4.75;;;5.50;99.90;;;;;;5072562;28;20123;-70
2022/12/28 01:07:28;;;;;;;9.90;4.70;;;5.50;99.90;;;;;;5072449;28;20046;-70
2022/12/28 01:09:54;;;;;;;12.40;4.60;;;5.60;99.90;;;;;;5072449;28;20040;-70
2022/12/28 01:12:19;;;;;;;13.25;4.57;;;5.50;99.90;;;;;;5072493;28;20408;-70
2022/12/28 01:14:45;;;;;;;14.75;5.57;;;5.60;99.90;;;;;;5072262;28;20043;-70
2022/12/28 01:17:11;;;;;;;9.43;4.50;;;5.60;99.90;;;;;;5073475;28;20040;-70
2022/12/28 01:19:36;;;;;;;9.32;4.07;;;5.60;99.90;;;;;;5072480;28;20401;-70
2022/12/28 01:22:02;;;;;;;11.48;4.65;;;5.60;99.90;;;;;;5072451;28;20036;-70
2022/12/28 01:24:27;;;;;;;9.20;4.70;;;5.60;99.90;;;;;;5072175;28;20493;-70
2022/12/28 01:26:53;;;;;;;10.82;4.60;;;5.60;99.90;;;;;;5072170;28;20073;-70
2022/12/28 01:29:18;;;;;;;9.57;4.60;;;5.60;99.90;;;;;;5072183;28;20122;-70
2022/12/28 01:31:44;;;;;;;14.52;5.85;;;5.60;99.90;;;;;;5072148;28;20052;-70
2022/12/28 01:34:09;;;;;;;11.27;4.85;;;5.70;99.90;;;;;;5071990;28;20055;-70
2022/12/28 01:36:35;;;;;;;10.98;4.90;;;5.70;99.90;;;;;;5071946;28;20033;-70
2022/12/28 01:39:04;;;;;;;12.70;4.78;;;5.70;99.90;;;;;;5072030;28;20098;-70
2022/12/28 01:41:31;;;;;;;11.95;4.95;;;5.70;99.90;;;;;;5072003;28;20040;-70
2022/12/28 01:43:57;;;;;;;11.15;4.97;;;5.70;99.90;;;;;;5071971;28;20036;-70
2022/12/28 01:46:37;;;;;;;9.80;5.50;;;5.80;99.90;;;;;;5072097;28;20086;-71
2022/12/28 01:49:05;;;;;;;11.75;4.80;;;5.80;99.90;;;;;;5072219;28;20417;-71
2022/12/28 01:51:38;;;;;;;9.48;4.82;;;5.80;99.90;;;;;;5054949;28;20028;-71
2022/12/28 01:54:04;;;;;;;11.13;5.63;;;5.80;99.90;;;;;;5055365;28;20523;-70
2022/12/28 01:56:30;;;;;;;13.60;5.63;;;5.80;99.90;;;;;;5071789;28;20115;-70
2022/12/28 01:58:57;;;;;;;12.07;4.90;;;5.70;99.90;;;;;;5071838;28;20119;-70
2022/12/28 02:01:23;;;;;;;9.90;5.28;;;5.70;99.90;;;;;;5072010;28;20036;-70
2022/12/28 02:03:49;;;;;;;12.43;5.47;;;5.80;99.90;;;;;;5072035;28;20089;-70
2022/12/28 02:06:15;;;;;;;12.57;5.63;;;5.80;99.90;;;;;;5071696;28;20036;-70
2022/12/28 02:08:46;;;;;;;13.48;6.65;;;5.80;99.90;;;;;;5071687;28;20040;-70
2022/12/28 02:11:15;;;;;;;14.10;5.25;;;5.80;99.90;;;;;;5071739;28;20044;-71
2022/12/28 02:13:46;;;;;;;11.02;5.40;;;5.80;99.90;;;;;;5071916;28;20052;-70
2022/12/28 02:16:12;;;;;;;13.35;5.70;;;5.80;99.90;;;;;;5071529;28;20044;-70
2022/12/28 02:18:40;;;;;;;15.88;5.65;;;5.70;99.90;;;;;;5071869;28;20186;-70
2022/12/28 02:21:15;;;;;;;16.55;6.13;;;5.80;99.90;;;;;;5071549;28;20044;-70
2022/12/28 02:24:11;;;;;;;14.32;6.40;;;5.80;99.90;;;;;;5071628;28;20066;-70
2022/12/28 02:26:49;;;;;;;11.13;5.95;;;5.80;99.90;;;;;;5071506;28;20044;-70
2022/12/28 02:29:28;;;;;;;16.73;6.90;;;5.80;99.90;;;;;;5071842;28;20044;-71
2022/12/28 02:31:57;;;;;;;12.50;6.25;;;5.80;99.90;;;;;;5071629;28;20039;-70
2022/12/28 02:34:30;;;;;;;10.68;5.97;;;5.70;99.90;;;;;;5071435;28;20101;-70
2022/12/28 02:37:08;;;;;;;12.10;6.75;;;5.70;99.90;;;;;;5071450;28;20044;-70
2022/12/28 02:39:43;;;;;;;14.60;7.65;;;5.80;99.90;;;;;;5071451;28;20401;-70
2022/12/28 02:42:10;;;;;;;17.75;7.13;;;5.80;99.90;;;;;;5071488;28;20115;-70
2022/12/28 02:50:09;;;;;;;12.50;7.25;;;5.80;99.90;;;;;;5071355;28;20485;-70
2022/12/28 02:52:59;;;;;;;11.63;6.68;;;5.80;99.90;;;;;;5071272;28;20044;-70
2022/12/28 02:56:07;;;;;;;14.20;7.63;;;5.90;99.90;;;;;;5071174;28;20128;-70
2022/12/28 02:59:02;;;;;;;11.00;6.78;;;5.80;99.90;;;;;;5071224;28;20493;-70
2022/12/28 03:02:04;;;;;;;12.60;7.15;;;5.80;99.90;;;;;;5071279;28;20037;-70
2022/12/28 03:04:50;;;;;;;12.55;7.47;;;5.80;99.90;;;;;;5072962;28;20111;-70
2022/12/28 03:10:18;;;;;;;12.88;7.88;;;5.90;99.90;;;;;;5074751;28;20123;-70
2022/12/28 03:12:55;;;;;;;11.70;6.90;;;5.90;99.90;;;;;;5074876;28;20520;-70
2022/12/28 03:15:33;;;;;;;14.95;7.57;;;6.00;99.90;;;;;;5074577;28;20090;-70
2022/12/28 03:31:51;;;;;;;14.48;7.53;;;6.20;99.90;;;;;;5074349;28;20045;-70
2022/12/28 03:34:17;;;;;;;12.50;7.82;;;6.20;99.90;;;;;;5074240;28;20049;-70
2022/12/28 03:37:24;;;;;;;12.85;6.82;;;6.30;99.90;;;;;;5074451;28;20123;-70
2022/12/28 03:40:05;;;;;;;14.82;7.15;;;6.30;99.90;;;;;;5074530;28;20124;-71
2022/12/28 03:46:08;;;;;;;11.07;6.95;;;6.30;99.90;;;;;;5074216;28;20084;-71
2022/12/28 03:48:38;;;;;;;11.60;6.72;;;6.40;99.90;;;;;;5073909;28;20041;-71
2022/12/28 03:51:04;;;;;;;11.13;6.13;;;6.40;99.90;;;;;;5074521;28;20125;-71
2022/12/28 03:53:38;;;;;;;11.77;7.05;;;6.40;99.90;;;;;;5073911;28;20072;-70
2022/12/28 03:56:08;;;;;;;10.93;6.43;;;6.50;99.90;;;;;;5074038;28;20047;-71
2022/12/28 03:58:34;;;;;;;14.30;7.00;;;6.40;99.90;;;;;;5073899;28;20033;-71
2022/12/28 04:00:59;;;;;;;8.90;6.03;;;6.50;99.90;;;;;;5073832;28;20043;-71
2022/12/28 04:03:25;;;;;;;12.07;6.10;;;6.40;99.90;;;;;;5073719;28;20036;-70
2022/12/28 04:05:51;;;;;;;8.27;6.35;;;6.50;99.90;;;;;;5073622;28;20043;-70
2022/12/28 04:08:16;;;;;;;9.90;6.20;;;6.50;99.90;;;;;;5056949;28;20074;-71
2022/12/28 04:10:42;;;;;;;11.50;6.57;;;6.50;99.90;;;;;;5073553;28;20102;-71
2022/12/28 04:13:07;;;;;;;12.98;6.53;;;6.50;99.90;;;;;;5073517;28;20052;-70
2022/12/28 04:15:33;;;;;;;9.02;5.90;;;6.50;99.90;;;;;;5073119;28;20047;-70
2022/12/28 04:18:01;;;;;;;8.48;5.80;;;6.60;99.90;;;;;;5073445;28;20425;-71
2022/12/28 04:20:27;;;;;;;7.05;6.25;;;6.60;99.90;;;;;;5073368;28;20036;-71
2022/12/28 04:22:53;;;;;;;8.02;5.88;;;6.50;99.90;;;;;;5073326;28;20044;-71
2022/12/28 04:25:18;;;;;;;11.13;6.88;;;6.60;99.90;;;;;;5073276;28;20044;-71
2022/12/28 04:27:44;;;;;;;10.75;6.45;;;6.60;99.90;;;;;;5073166;28;20044;-71
2022/12/28 04:30:09;;;;;;;6.63;5.63;;;6.70;99.90;;;;;;5073190;28;20047;-71
2022/12/28 04:32:35;;;;;;;9.15;6.22;;;6.60;99.90;;;;;;5073125;28;20037;-71
2022/12/28 04:35:01;;;;;;;7.22;6.13;;;6.60;99.90;;;;;;5073032;28;20098;-71
2022/12/28 04:37:26;;;;;;;9.05;6.18;;;6.70;99.90;;;;;;5072964;28;20039;-71
2022/12/28 04:39:52;;;;;;;8.00;6.53;;;6.70;99.90;;;;;;5072981;28;20047;-71
2022/12/28 04:42:17;;;;;;;10.73;6.22;;;6.60;99.90;;;;;;5072942;28;20120;-71
2022/12/28 04:44:43;;;;;;;7.82;5.68;;;6.70;99.90;;;;;;5056331;28;20044;-71
2022/12/28 04:47:09;;;;;;;9.10;6.55;;;6.70;99.90;;;;;;5072756;28;20032;-71
2022/12/28 04:49:34;;;;;;;8.90;6.75;;;6.80;99.90;;;;;;5072923;28;20089;-71
2022/12/28 04:52:00;;;;;;;10.63;6.40;;;6.70;99.90;;;;;;5072734;28;20040;-71
2022/12/28 04:54:25;;;;;;;10.52;6.72;;;6.80;99.90;;;;;;5072607;28;20041;-70
2022/12/28 04:56:51;;;;;;;8.90;6.45;;;6.80;99.90;;;;;;5073868;28;20040;-71
2022/12/28 04:59:16;;;;;;;8.38;7.13;;;6.80;99.90;;;;;;5072593;28;20501;-71
2022/12/28 05:01:42;;;;;;;8.60;6.95;;;6.80;99.90;;;;;;5072552;28;20041;-71
2022/12/28 05:04:07;;;;;;;8.93;6.75;;;6.90;99.90;;;;;;5072786;28;20123;-70
2022/12/28 05:06:33;;;;;;;7.72;6.90;;;6.90;99.90;;;;;;5072406;28;20036;-71
2022/12/28 05:08:59;;;;;;;7.00;6.30;;;6.90;99.90;;;;;;5072439;28;20124;-71
2022/12/28 05:11:27;;;;;;;9.32;7.43;;;6.90;99.90;;;;;;5072363;28;20068;-71
2022/12/28 05:13:53;;;;;;;9.60;7.20;;;7.00;99.90;;;;;;5072267;28;20390;-70
2022/12/28 05:16:21;;;;;;;10.52;7.05;;;7.00;99.90;;;;;;5072204;28;20443;-71
2022/12/28 05:18:47;;;;;;;7.80;7.00;;;7.00;99.90;;;;;;5072282;28;20044;-71
2022/12/28 05:21:15;;;;;;;9.23;7.13;;;7.00;99.90;;;;;;5072221;28;20098;-71
2022/12/28 05:23:41;;;;;;;11.55;8.10;;;7.10;99.90;;;;;;5073429;28;20055;-71
2022/12/28 05:26:12;;;;;;;9.15;8.25;;;7.10;99.90;;;;;;5071776;28;20115;-71
2022/12/28 05:28:38;;;;;;;10.43;8.35;;;7.20;99.90;;;;;;5073593;28;20072;-71
2022/12/28 05:31:06;;;;;;;11.68;8.15;;;7.20;99.90;;;;;;5072096;28;20457;-71
2022/12/28 05:33:33;;;;;;;8.88;7.97;;;7.20;99.90;;;;;;5072056;28;20048;-71
2022/12/28 05:36:14;;;;;;;9.50;8.57;;;7.20;99.90;;;;;;5071936;28;20040;-71
2022/12/28 05:38:40;;;;;;;11.50;8.98;;;7.30;99.90;;;;;;5072326;28;20131;-71
2022/12/28 05:41:16;;;;;;;9.93;8.90;;;7.40;99.90;;;;;;5055571;28;20505;-71
2022/12/28 05:43:43;;;;;;;9.18;8.27;;;7.30;99.90;;;;;;5071928;28;20056;-71
2022/12/28 05:46:12;;;;;;;10.30;9.10;;;7.40;99.90;;;;;;5071887;28;20142;-70
2022/12/28 05:48:40;;;;;;;9.43;8.52;;;7.40;99.90;;;;;;5071753;28;20048;-71
2022/12/28 05:51:14;;;;;;;10.55;9.18;;;7.40;99.90;;;;;;5071847;28;20048;-71
2022/12/28 05:53:41;;;;;;;10.65;9.27;;;7.40;99.90;;;;;;5073373;28;20041;-70
2022/12/28 05:56:18;;;;;;;12.38;9.52;;;7.40;99.90;;;;;;5071683;28;20044;-71
2022/12/28 05:58:45;;;;;;;12.02;10.10;;;7.40;99.90;;;;;;5071810;28;20051;-71
2022/12/28 06:01:16;;;;;;;9.77;8.65;;;7.50;99.90;;;;;;5072008;28;20051;-71
2022/12/28 06:03:43;;;;;;;11.05;9.70;;;7.60;99.90;;;;;;5071978;28;20097;-71
2022/12/28 06:06:11;;;;;;;10.95;9.85;;;7.60;99.90;;;;;;5071650;28;20048;-71
2022/12/28 06:08:37;;;;;;;14.30;9.32;;;7.70;99.90;;;;;;5071938;28;20063;-71
2022/12/28 06:11:05;;;;;;;13.88;10.27;;;7.70;99.90;;;;;;5071680;28;20036;-71
2022/12/28 06:13:31;;;;;;;10.32;9.18;;;7.70;99.90;;;;;;5071862;28;20117;-70
2022/12/28 06:15:57;;;;;;;10.60;9.50;;;7.70;99.90;;;;;;5071549;28;20051;-71
2022/12/28 06:18:27;;;;;;;10.98;9.00;;;7.80;99.90;;;;;;5054920;28;20033;-71
2022/12/28 06:20:52;;;;;;;10.68;9.52;;;7.70;99.90;;;;;;5071575;28;20047;-71
2022/12/28 06:23:18;;;;;;;10.68;9.27;;;7.70;99.90;;;;;;5071887;28;20036;-71
2022/12/28 06:25:44;;;;;;;10.68;9.27;;;7.80;99.90;;;;;;5071480;28;20405;-70
2022/12/28 06:28:09;;;;;;;11.18;10.02;;;7.80;99.90;;;;;;5071521;28;20084;-71
2022/12/28 06:30:35;;;;;;;9.73;8.80;;;7.90;99.90;;;;;;5071484;28;20052;-71
2022/12/28 06:33:00;;;;;;;9.57;8.57;;;7.90;99.90;;;;;;5071480;28;20040;-71
2022/12/28 06:35:26;;;;;;;10.32;9.18;;;7.90;99.90;;;;;;5071349;28;20093;-71
2022/12/28 06:37:52;;;;;;;10.27;9.23;;;8.00;99.90;;;;;;5071362;28;20032;-71
2022/12/28 06:40:17;;;;;;;9.85;8.95;;;7.90;99.90;;;;;;5074515;28;20045;-71
2022/12/28 06:42:43;;;;;;;11.40;9.25;;;7.90;99.90;;;;;;5075221;28;20094;-71
2022/12/28 06:45:08;;;;;;;9.30;8.30;;;8.00;99.90;;;;;;5075159;28;20037;-71
2022/12/28 06:47:35;;;;;;;10.25;9.25;;;8.00;99.90;;;;;;5074923;28;20043;-71
2022/12/28 06:50:02;;;;;;;9.05;7.53;;;8.00;99.90;;;;;;5075176;28;20048;-71
2022/12/28 06:52:27;;;;;;;9.43;8.10;;;8.00;99.90;;;;;;5058682;28;20067;-71
2022/12/28 06:54:53;;;;;;;10.60;7.97;;;8.00;99.90;;;;;;5076161;28;20502;-71
2022/12/28 06:57:18;;;;;;;8.68;7.78;;;8.00;99.90;;;;;;5074826;28;20036;-71
2022/12/28 06:59:44;;;;;;;10.73;8.35;;;8.00;99.90;;;;;;5075175;28;20067;-71
2022/12/28 07:02:10;;;;;;;8.40;7.55;;;8.00;99.90;;;;;;5075117;28;20043;-71
2022/12/28 07:04:35;;;;;;;9.25;7.70;;;8.00;99.90;;;;;;5074809;28;20506;-71
2022/12/28 07:07:01;;;;;;;11.00;9.52;;;8.10;99.90;;;;;;5074957;28;20033;-71
2022/12/28 07:09:26;;;;;;;12.45;8.63;;;8.10;99.90;;;;;;5076003;28;20485;-71
2022/12/28 07:11:52;;;;;;;11.50;8.95;;;8.10;99.90;;;;;;5074673;28;20501;-71
2022/12/28 07:14:18;;;;;;;11.27;9.38;;;8.10;99.90;;;;;;5074822;28;20040;-71
2022/12/28 07:16:44;;;;;;;10.23;8.52;;;8.10;99.90;;;;;;5074548;28;20086;-70
2022/12/28 07:19:09;;;;;;;9.88;8.98;;;8.10;99.90;;;;;;5074576;28;20094;-71
2022/12/28 07:21:37;;;;;;;11.75;10.07;;;8.20;99.90;;;;;;5074761;28;20033;-71
2022/12/28 07:24:03;;;;;;;10.50;9.32;;;8.10;99.90;;;;;;5074441;28;20119;-71
2022/12/28 07:26:31;;;;;;;11.63;9.82;;;8.20;99.90;;;;;;5075589;28;20037;-71
2022/12/28 07:28:59;;;;;;;13.05;10.15;;;8.20;99.90;;;;;;5074638;28;20063;-71
2022/12/28 07:31:30;;;;;;;10.90;9.70;;;8.20;99.90;;;;;;5074310;28;20101;-71
2022/12/28 07:33:57;;;;;;;10.20;9.15;;;8.30;99.90;;;;;;5074297;28;20056;-71
2022/12/28 07:36:24;;;;;;;10.70;9.23;;;8.30;99.90;;;;;;5075370;28;20052;-71
2022/12/28 07:38:50;;;;;;;12.10;9.05;;;8.30;99.90;;;;;;5074139;28;20116;-71
2022/12/28 07:41:22;;;;;;;11.90;9.57;;;8.40;99.90;;;;;;5074438;28;20115;-71
2022/12/28 07:43:48;;;;;;;12.18;9.20;;;8.40;99.90;;;;;;5074141;28;20040;-71
2022/12/28 07:46:20;;;;;;;12.05;10.50;;;8.40;99.90;;;;;;5073996;28;20040;-71
2022/12/28 07:48:46;;;;;;;11.00;9.30;;;8.40;99.90;;;;;;5074041;28;20052;-71
2022/12/28 07:51:17;;;;;;;12.18;10.38;;;8.40;99.90;;;;;;5073420;28;20041;-71
2022/12/28 07:53:45;;;;;;;12.52;9.85;;;8.40;99.90;;;;;;5074057;28;20036;-71
2022/12/28 07:56:11;;;;;;;12.98;10.88;;;8.40;99.90;;;;;;5073724;28;20045;-71
2022/12/28 07:58:37;;;;;;;14.45;11.75;;;8.40;99.90;;;;;;5074071;28;20051;-71
2022/12/28 08:01:23;;;;;;;12.00;10.80;;;8.40;99.90;;;;;;5073780;28;20041;-71
2022/12/28 08:03:54;;;;;;;12.85;11.48;;;8.40;99.90;;;;;;5073759;28;20443;-71
2022/12/28 08:06:24;;;;;;;13.65;10.45;;;8.40;99.90;;;;;;5073649;28;20047;-71
2022/12/28 08:08:55;;;;;;;15.27;11.23;;;8.40;99.90;;;;;;5073637;28;20048;-71
2022/12/28 08:11:23;;;;;;;14.70;10.63;;;8.40;99.90;;;;;;5073552;28;20044;-71
2022/12/28 08:13:50;;;;;;;18.02;11.20;;;8.40;99.90;;;;;;5073803;28;20094;-71
2022/12/28 08:16:18;;;;;;;10.50;9.40;;;8.40;99.90;;;;;;5073354;28;20044;-73
2022/12/28 08:18:44;;;;;;;13.45;8.32;;;8.40;99.90;;;;;;5073434;28;20064;-71
2022/12/28 08:21:13;;;;;;;9.82;8.27;;;8.50;99.90;;;;;;5073331;28;20079;-71
2022/12/28 08:23:39;;;;;;;11.45;8.25;;;8.50;99.90;;;;;;5073634;28;20111;-71
2022/12/28 08:26:25;;;;;;;9.20;8.25;;;8.50;99.90;;;;;;5073222;28;20553;-71
2022/12/28 08:28:54;;;;;;;10.55;8.93;;;8.60;99.90;;;;;;5056854;28;20127;-71
2022/12/28 08:31:26;;;;;;;9.45;8.45;;;8.50;99.90;;;;;;5073193;28;20036;-71
2022/12/28 08:33:53;;;;;;;10.10;8.95;;;8.60;99.90;;;;;;5073111;28;20429;-71
2022/12/28 08:36:19;;;;;;;11.65;8.68;;;8.50;99.90;;;;;;5072946;28;20040;-71
2022/12/28 08:38:45;;;;;;;9.00;8.15;;;8.50;99.90;;;;;;5074295;28;20094;-71
2022/12/28 08:41:17;;;;;;;8.20;7.00;;;8.60;99.90;;;;;;5073251;28;20044;-71
2022/12/28 08:43:43;;;;;;;8.45;7.55;;;8.50;99.90;;;;;;5072929;28;20083;-71
2022/12/28 08:46:18;;;;;;;7.28;6.43;;;8.50;99.90;;;;;;5073076;28;20044;-71
2022/12/28 08:48:45;;;;;;;7.97;7.18;;;8.60;99.90;;;;;;5072709;28;20123;-71
2022/12/28 08:51:15;;;;;;;8.73;7.78;;;8.50;99.90;;;;;;5072782;28;20040;-71
2022/12/28 08:53:41;;;;;;;10.27;8.25;;;8.60;99.90;;;;;;5073030;28;20051;-71
2022/12/28 08:56:28;;;;;;;9.85;7.82;;;8.60;99.90;;;;;;5072526;28;20044;-71
2022/12/28 08:58:56;;;;;;;10.93;8.80;;;8.60;99.90;;;;;;5072987;28;20063;-71
2022/12/28 09:01:27;;;;;;;9.30;8.02;;;8.60;99.90;;;;;;5071728;28;20048;-71
2022/12/28 09:03:56;;;;;;;8.68;7.82;;;8.60;99.90;;;;;;5072844;28;20044;-71
2022/12/28 09:06:25;;;;;;;11.52;8.68;;;8.60;99.90;;;;;;5072545;28;20078;-71
2022/12/28 09:08:52;;;;;;;9.30;8.20;;;8.60;99.90;;;;;;5072479;28;20080;-71
2022/12/28 09:11:18;;;;;;;8.13;6.78;;;8.60;99.90;;;;;;5072352;28;20051;-71
2022/12/28 09:13:44;;;;;;;8.98;7.93;;;8.60;99.90;;;;;;5072560;28;20040;-71
2022/12/28 09:16:13;;;;;;;11.30;7.40;;;8.70;99.90;;;;;;5072477;28;20489;-71
2022/12/28 09:18:40;;;;;;;7.53;6.68;;;8.70;99.90;;;;;;5072369;28;20123;-71
2022/12/28 09:21:08;;;;;;;7.47;6.75;;;8.70;99.90;;;;;;5072311;28;20119;-71
2022/12/28 09:23:34;;;;;;;9.55;6.38;;;8.80;99.90;;;;;;5072401;28;20049;-71
2022/12/28 09:26:04;;;;;;;7.95;5.88;;;8.70;99.90;;;;;;5073591;28;20041;-71
2022/12/28 09:28:29;;;;;;;7.53;5.80;;;8.80;99.90;;;;;;5072147;28;20049;-71
2022/12/28 09:30:55;;;;;;;7.93;5.57;;;8.80;99.90;;;;;;5072128;28;20047;-71
2022/12/28 09:36:05;;;;;;;8.57;6.65;;;8.80;99.90;;;;;;5071932;28;20501;-71
2022/12/28 09:38:30;;;;;;;8.13;6.55;;;8.90;99.90;;;;;;5072268;28;20040;-71
2022/12/28 09:40:57;;;;;;;8.13;5.90;;;8.80;99.90;;;;;;5072002;28;20041;-71
2022/12/28 09:43:24;;;;;;;7.75;6.18;;;8.90;99.90;;;;;;5071976;28;20040;-71
2022/12/28 09:45:53;;;;;;;7.43;6.40;;;8.90;99.90;;;;;;5071883;28;20516;-71
2022/12/28 09:48:22;;;;;;;6.40;5.80;;;8.90;99.90;;;;;;5072152;28;20048;-71
2022/12/28 09:50:49;;;;;;;8.35;5.88;;;9.00;99.90;;;;;;5071920;28;20563;-71
2022/12/28 09:53:28;;;;;;;6.32;5.65;;;8.90;99.90;;;;;;5071863;28;20166;-71
2022/12/28 09:56:02;;;;;;;6.90;5.95;;;9.00;99.90;;;;;;5071816;28;20109;-71
2022/12/28 09:58:30;;;;;;;8.68;6.25;;;9.00;99.90;;;;;;5071814;28;20401;-71
2022/12/28 10:00:58;;;;;;;9.82;6.35;;;9.10;99.90;;;;;;5072033;28;20045;-71
2022/12/28 10:03:32;;;;;;;7.32;5.88;;;9.00;99.90;;;;;;5072028;28;20040;-71
2022/12/28 10:05:58;;;;;;;6.65;5.93;;;9.10;99.90;;;;;;5071866;28;20049;-71
2022/12/28 10:08:26;;;;;;;7.25;5.57;;;9.10;99.90;;;;;;5071995;28;20044;-71
2022/12/28 10:10:54;;;;;;;6.88;5.68;;;9.00;99.90;;;;;;5071702;28;20048;-71
2022/12/28 10:13:22;;;;;;;7.25;6.55;;;9.00;99.90;;;;;;5073330;28;20455;-71
2022/12/28 10:15:49;;;;;;;8.40;6.28;;;9.00;99.90;;;;;;5075630;28;20090;-71
2022/12/28 10:18:24;;;;;;;8.32;5.85;;;9.00;99.90;;;;;;5076002;28;20040;-72
2022/12/28 10:20:49;;;;;;;9.18;5.38;;;9.00;99.90;;;;;;5076000;28;20047;-71
2022/12/28 10:23:28;;;;;;;6.28;5.65;;;9.10;99.90;;;;;;5075690;28;20107;-71
2022/12/28 10:25:56;;;;;;;6.15;5.55;;;9.10;99.90;;;;;;5075549;28;20051;-71
2022/12/28 10:28:27;;;;;;;7.40;5.70;;;9.10;99.90;;;;;;5075574;28;20056;-71
2022/12/28 10:31:10;;;;;;;6.00;5.38;;;9.10;99.90;;;;;;5076842;28;20414;-71
2022/12/28 10:33:40;;;;;;;;;;;9.10;99.90;;;;;;5076136;28;20043;-71
2022/12/28 10:36:11;;;;;;;6.22;5.43;;;9.00;99.90;;;;;;5075277;28;19921;-71
2022/12/28 10:38:39;;;;;;;6.57;5.25;;;9.00;99.90;;;;;;5075348;28;20115;-71
2022/12/28 10:41:09;;;;;;;5.80;5.20;;;9.00;99.90;;;;;;5075294;28;20505;-71
2022/12/28 10:43:38;;;;;;;7.22;6.00;;;9.00;99.90;;;;;;5075496;28;20040;-71
2022/12/28 10:46:13;;;;;;;8.60;6.47;;;9.00;99.90;;;;;;5076622;28;20040;-71
2022/12/28 10:48:43;;;;;;;9.10;7.50;;;9.10;99.90;;;;;;5075037;28;20456;-71
2022/12/28 10:51:17;;;;;;;7.95;6.97;;;9.00;99.90;;;;;;5075094;28;20048;-71
2022/12/28 10:53:50;;;;;;;9.68;7.55;;;9.10;99.90;;;;;;5076650;28;20032;-71
2022/12/28 10:56:29;;;;;;;7.97;7.15;;;9.10;99.90;;;;;;5075038;28;20076;-71
2022/12/28 10:59:10;;;;;;;8.23;7.43;;;9.10;99.90;;;;;;5075064;28;20545;-71
2022/12/28 11:01:36;;;;;;;8.63;6.35;;;9.10;99.90;;;;;;5074986;28;20086;-71
2022/12/28 11:04:24;;;;;;;7.72;6.93;;;9.10;99.90;;;;;;5075132;28;20402;-71
2022/12/28 11:06:59;;;;;;;6.70;6.00;;;9.00;99.90;;;;;;5074813;28;20102;-71
2022/12/28 11:09:25;;;;;;;8.15;7.35;;;9.00;99.90;;;;;;5075302;28;20056;-71
2022/12/28 11:12:14;;;;;;;7.20;6.25;;;9.00;99.90;;;;;;5074740;28;20040;-71
2022/12/28 11:14:40;;;;;;;6.40;5.82;;;9.00;99.90;;;;;;5074889;28;20040;-71
2022/12/28 11:17:17;;;;;;;6.45;5.80;;;9.00;99.90;;;;;;5074549;28;20070;-72
2022/12/28 11:19:43;;;;;;;7.38;5.80;;;9.00;99.90;;;;;;5074590;28;20045;-71
2022/12/28 11:22:11;;;;;;;6.18;5.50;;;9.00;99.90;;;;;;5058069;28;20566;-71
2022/12/28 11:24:38;;;;;;;6.13;5.53;;;9.00;99.90;;;;;;5073504;28;20548;-71
2022/12/28 11:27:04;;;;;;;5.45;4.95;;;9.00;99.90;;;;;;5074592;28;20524;-71
2022/12/28 11:29:31;;;;;;;6.00;5.18;;;9.00;99.90;;;;;;5074669;28;20052;-71
2022/12/28 11:32:04;;;;;;;6.22;5.50;;;9.00;99.90;;;;;;5074371;28;20044;-71
2022/12/28 11:34:30;;;;;;;8.82;5.53;;;8.90;99.90;;;;;;5074446;28;20124;-71
2022/12/28 11:36:56;;;;;;;5.30;4.80;;;8.90;99.90;;;;;;5074147;28;20559;-71
2022/12/28 11:39:25;;;;;;;7.07;5.13;;;8.90;99.90;;;;;;5074207;28;20040;-71
2022/12/28 11:41:52;;;;;;;5.97;5.35;;;9.00;99.90;;;;;;5074191;28;20528;-71
2022/12/28 11:44:41;;;;;;;5.38;4.88;;;9.00;99.90;;;;;;5074142;28;20037;-71
2022/12/28 11:47:25;;;;;;;5.95;5.00;;;8.90;99.90;;;;;;5057374;28;20040;-71
2022/12/28 11:49:52;;;;;;;5.00;4.50;;;9.00;99.90;;;;;;5074026;28;20404;-71
2022/12/28 11:52:29;;;;;;;5.35;4.82;;;9.00;99.90;;;;;;5074084;28;20072;-71
2022/12/28 11:55:19;;;;;;;5.20;4.53;;;9.00;99.90;;;;;;5073986;28;20048;-71
2022/12/28 11:57:45;;;;;;;5.18;4.68;;;9.00;99.90;;;;;;5073927;28;20044;-71
2022/12/28 12:00:19;;;;;;;5.15;4.60;;;9.00;99.90;;;;;;5074138;28;20051;-71
2022/12/28 12:02:51;;;;;;;6.95;4.70;;;9.00;99.90;;;;;;5073889;28;20041;-71
2022/12/28 12:05:35;;;;;;;5.97;4.65;;;9.00;99.90;;;;;;5073945;28;20133;-71
2022/12/28 12:08:10;;;;;;;6.55;5.30;;;9.00;99.90;;;;;;5073950;28;20047;-71
2022/12/28 12:10:38;;;;;;;5.55;4.65;;;8.90;99.90;;;;;;5073570;28;20051;-71
2022/12/28 12:13:25;;;;;;;5.03;4.53;;;9.00;99.90;;;;;;5073568;28;20129;-71
2022/12/28 12:16:00;;;;;;;5.80;4.60;;;9.00;99.90;;;;;;5073527;28;21809;-71
2022/12/28 12:18:28;;;;;;;7.30;5.32;;;9.00;99.90;;;;;;5073460;28;20493;-71
2022/12/28 12:21:03;;;;;;;5.97;5.00;;;9.00;99.90;;;;;;5073342;28;20417;-71
2022/12/28 12:23:35;;;;;;;6.47;5.32;;;9.00;99.90;;;;;;5073534;28;20040;-71
2022/12/28 12:26:15;;;;;;;6.13;5.53;;;9.00;99.90;;;;;;5073281;28;20044;-70
2022/12/28 12:28:47;;;;;;;6.43;5.18;;;9.00;99.90;;;;;;5073336;28;20497;-71
2022/12/28 12:31:31;;;;;;;6.38;5.78;;;9.00;99.90;;;;;;5073512;28;20045;-71
2022/12/28 12:34:04;;;;;;;7.15;6.45;;;9.00;99.90;;;;;;5073402;28;20052;-71
2022/12/28 12:37:05;;;;;;;8.23;5.32;;;9.00;99.90;;;;;;5072905;28;20116;-71
2022/12/28 12:40:08;;;;;;;6.07;5.03;;;9.00;99.90;;;;;;5073370;28;20048;-71
2022/12/28 12:43:02;;;;;;;5.60;4.85;;;8.90;99.90;;;;;;5071898;28;20098;-71
2022/12/28 12:45:27;;;;;;;;;;;8.90;99.90;;;;;;5073649;28;20067;-71
2022/12/28 12:48:24;;;;;;;5.25;4.65;;;8.90;99.90;;;;;;5072702;28;20444;-71
2022/12/28 12:51:09;;;;;;;6.68;4.30;;;9.00;99.90;;;;;;5072873;28;20033;-71
2022/12/28 12:54:05;;;;;;;6.55;4.40;;;8.90;99.90;;;;;;5072793;28;20044;-71
2022/12/28 12:56:49;;;;;;;4.57;3.72;;;8.90;99.90;;;;;;5072663;28;20044;-72
2022/12/28 12:59:15;;;;;;;3.58;3.15;;;8.90;99.90;;;;;;5073535;28;20032;-71
2022/12/28 13:02:05;;;;;;;4.45;3.70;;;8.90;99.90;;;;;;5072638;28;20047;-71
2022/12/28 13:04:34;;;;;;;5.10;4.25;;;8.90;99.90;;;;;;5072858;28;20075;-71
2022/12/28 13:07:03;;;;;;;4.72;3.50;;;8.90;99.90;;;;;;5072489;28;20041;-71
2022/12/28 13:09:33;;;;;;;6.20;3.67;;;9.00;99.90;;;;;;5072488;28;20064;-72
2022/12/28 13:12:00;;;;;;;4.00;3.00;;;9.00;99.90;;;;;;5072698;28;20101;-71
2022/12/28 13:14:26;;;;;;;6.47;3.00;;;9.00;99.90;;;;;;5072289;28;20112;-71
2022/12/28 13:16:55;;;;;;;5.63;3.30;;;9.00;99.90;;;;;;5072257;28;20085;-71
2022/12/28 13:19:27;;;;;;;3.92;3.22;;;9.00;99.90;;;;;;5073568;28;20055;-71
2022/12/28 13:21:53;;;;;;;6.00;3.63;;;9.00;99.90;;;;;;5072309;28;20045;-71
2022/12/28 13:24:26;;;;;;;3.55;3.00;;;9.00;99.90;;;;;;5072252;28;20064;-71
2022/12/28 13:26:52;;;;;;;4.30;3.00;;;9.00;99.90;;;;;;5072150;28;20045;-71
2022/12/28 13:29:23;;;;;;;4.47;2.75;;;9.00;99.90;;;;;;5072429;28;20040;-71
2022/12/28 13:31:50;;;;;;;2.88;1.85;;;9.00;99.90;;;;;;5072407;28;20046;-71
2022/12/28 13:34:20;;;;;;;4.18;2.67;;;9.00;99.90;;;;;;5072040;28;20036;-71
2022/12/28 13:36:53;;;;;;;2.78;1.92;;;9.10;99.90;;;;;;5072012;28;20431;-71